OIAH

Details ICAO OIAH
Name GACHSARAN
Region Iran
Timezone Asia/Tehran (UTC+4.5)
Plans Departing 1
Arriving 1
Stats Elevation 2,414 ft / 736 m (AMSL)
Location 30.337567° 50.827962°
Runways 1
Magnetic Variation 3.522° E
Sunrise 2018-05-23 01:39:58 UTC / 2018-05-23 06:09:58 Local
Sunset 2018-05-23 15:29:45 UTC / 2018-05-23 19:59:45 Local
Advertisement - Login to hide

Runways

ID Width Length Bearing (true) Bearing (mag) Surface Threshold Offset Overrun Length
12 148 ft / 45 m 6,066 ft / 1,849 m 124.71° 121.19° Asphalt 0 ft / 0 m 0 ft / 0 m
30 148 ft / 45 m 6,066 ft / 1,849 m 304.72° 301.20° Asphalt 0 ft / 0 m 0 ft / 0 m

Map

Weather


0- 5 10 15 20 25 30 35+ Temperature / ° C

Clouds and Precipitation
Forecast for 2018-05-23 12:00 UTC. Updated 2 hours ago

Ground ~20,000 ft ~40,000 ft Winds

METAR

OIAH 231100Z 25008KT 9999 FEW040 SCT200 37/M04 Q1011

TAF

Not found

Frequencies

Tower 129.00 MHz INFO
Tower 122.10 MHz INFO
Warning: Do not use this data for real-world aviation or navigation. No guarantee of current accuracy is given.